sensor_id;sensor_type;location;lat;lon;timestamp;P1;durP1;ratioP1;P2;durP2;ratioP2
27145;SDS011;17980;51.744;7.190;2023-06-10T00:01:14;5.93;;;5.10;;
27145;SDS011;17980;51.744;7.190;2023-06-10T00:03:43;6.00;;;5.40;;
27145;SDS011;17980;51.744;7.190;2023-06-10T00:06:21;7.33;;;5.67;;
27145;SDS011;17980;51.744;7.190;2023-06-10T00:08:53;6.27;;;5.67;;
27145;SDS011;17980;51.744;7.190;2023-06-10T00:11:44;6.00;;;5.40;;
27145;SDS011;17980;51.744;7.190;2023-06-10T00:14:21;6.33;;;5.70;;
27145;SDS011;17980;51.744;7.190;2023-06-10T00:16:50;5.63;;;5.07;;
27145;SDS011;17980;51.744;7.190;2023-06-10T00:22:23;6.73;;;5.50;;
27145;SDS011;17980;51.744;7.190;2023-06-10T00:25:05;5.03;;;4.60;;
27145;SDS011;17980;51.744;7.190;2023-06-10T00:30:22;7.20;;;5.33;;
27145;SDS011;17980;51.744;7.190;2023-06-10T00:32:50;5.97;;;5.40;;
27145;SDS011;17980;51.744;7.190;2023-06-10T00:35:39;5.57;;;4.57;;
27145;SDS011;17980;51.744;7.190;2023-06-10T00:38:07;6.73;;;5.23;;
27145;SDS011;17980;51.744;7.190;2023-06-10T00:40:42;6.70;;;4.47;;
27145;SDS011;17980;51.744;7.190;2023-06-10T00:43:33;5.57;;;5.03;;
27145;SDS011;17980;51.744;7.190;2023-06-10T00:46:03;5.87;;;5.30;;
27145;SDS011;17980;51.744;7.190;2023-06-10T00:48:31;5.97;;;5.00;;
27145;SDS011;17980;51.744;7.190;2023-06-10T00:51:17;5.60;;;4.83;;
27145;SDS011;17980;51.744;7.190;2023-06-10T00:53:46;8.07;;;5.13;;
27145;SDS011;17980;51.744;7.190;2023-06-10T00:56:16;6.30;;;4.30;;
27145;SDS011;17980;51.744;7.190;2023-06-10T00:58:44;5.30;;;4.80;;
27145;SDS011;17980;51.744;7.190;2023-06-10T01:01:21;8.27;;;4.93;;
27145;SDS011;17980;51.744;7.190;2023-06-10T01:03:50;6.93;;;4.90;;
27145;SDS011;17980;51.744;7.190;2023-06-10T01:06:30;9.27;;;5.23;;
27145;SDS011;17980;51.744;7.190;2023-06-10T01:09:21;5.93;;;4.37;;
27145;SDS011;17980;51.744;7.190;2023-06-10T01:11:52;7.20;;;5.13;;
27145;SDS011;17980;51.744;7.190;2023-06-10T01:14:25;7.17;;;5.07;;
27145;SDS011;17980;51.744;7.190;2023-06-10T01:17:09;7.00;;;5.53;;
27145;SDS011;17980;51.744;7.190;2023-06-10T01:19:37;7.57;;;5.07;;
27145;SDS011;17980;51.744;7.190;2023-06-10T01:22:16;10.50;;;4.80;;
27145;SDS011;17980;51.744;7.190;2023-06-10T01:24:44;5.67;;;4.63;;
27145;SDS011;17980;51.744;7.190;2023-06-10T01:27:13;6.67;;;4.43;;
27145;SDS011;17980;51.744;7.190;2023-06-10T01:29:45;6.83;;;4.57;;
27145;SDS011;17980;51.744;7.190;2023-06-10T01:32:25;7.20;;;4.70;;
27145;SDS011;17980;51.744;7.190;2023-06-10T01:34:56;8.13;;;4.60;;
27145;SDS011;17980;51.744;7.190;2023-06-10T01:37:29;5.83;;;4.83;;
27145;SDS011;17980;51.744;7.190;2023-06-10T01:39:59;6.90;;;5.00;;
27145;SDS011;17980;51.744;7.190;2023-06-10T01:42:42;8.07;;;4.87;;
27145;SDS011;17980;51.744;7.190;2023-06-10T01:45:10;4.60;;;4.20;;
27145;SDS011;17980;51.744;7.190;2023-06-10T01:47:37;5.63;;;4.70;;
27145;SDS011;17980;51.744;7.190;2023-06-10T01:50:06;5.57;;;4.90;;
27145;SDS011;17980;51.744;7.190;2023-06-10T01:52:44;8.50;;;4.93;;
27145;SDS011;17980;51.744;7.190;2023-06-10T01:55:12;5.07;;;4.57;;
27145;SDS011;17980;51.744;7.190;2023-06-10T01:57:40;8.90;;;4.50;;
27145;SDS011;17980;51.744;7.190;2023-06-10T02:00:12;5.47;;;4.90;;
27145;SDS011;17980;51.744;7.190;2023-06-10T02:06:27;5.47;;;4.83;;
27145;SDS011;17980;51.744;7.190;2023-06-10T02:08:54;6.47;;;4.33;;
27145;SDS011;17980;51.744;7.190;2023-06-10T02:11:32;6.97;;;3.93;;
27145;SDS011;17980;51.744;7.190;2023-06-10T02:13:59;6.83;;;4.83;;
27145;SDS011;17980;51.744;7.190;2023-06-10T02:16:40;5.13;;;4.60;;
27145;SDS011;17980;51.744;7.190;2023-06-10T02:19:26;5.30;;;3.97;;
27145;SDS011;17980;51.744;7.190;2023-06-10T02:21:56;7.27;;;5.00;;
27145;SDS011;17980;51.744;7.190;2023-06-10T02:24:36;8.20;;;5.40;;
27145;SDS011;17980;51.744;7.190;2023-06-10T02:27:06;5.87;;;5.30;;
27145;SDS011;17980;51.744;7.190;2023-06-10T02:29:36;6.73;;;4.60;;
27145;SDS011;17980;51.744;7.190;2023-06-10T02:32:13;5.80;;;4.53;;
27145;SDS011;17980;51.744;7.190;2023-06-10T02:34:45;8.27;;;4.87;;
27145;SDS011;17980;51.744;7.190;2023-06-10T02:37:18;5.63;;;4.93;;
27145;SDS011;17980;51.744;7.190;2023-06-10T02:40:07;4.97;;;3.87;;
27145;SDS011;17980;51.744;7.190;2023-06-10T02:42:37;6.57;;;5.13;;
27145;SDS011;17980;51.744;7.190;2023-06-10T02:45:18;5.10;;;4.57;;
27145;SDS011;17980;51.744;7.190;2023-06-10T02:47:50;5.30;;;4.80;;
27145;SDS011;17980;51.744;7.190;2023-06-10T02:50:19;8.20;;;5.27;;
27145;SDS011;17980;51.744;7.190;2023-06-10T02:53:05;5.20;;;4.47;;
27145;SDS011;17980;51.744;7.190;2023-06-10T02:55:33;6.43;;;5.13;;
27145;SDS011;17980;51.744;7.190;2023-06-10T02:58:01;6.00;;;4.73;;
27145;SDS011;17980;51.744;7.190;2023-06-10T03:00:29;6.83;;;4.57;;
27145;SDS011;17980;51.744;7.190;2023-06-10T03:03:12;8.30;;;5.10;;
27145;SDS011;17980;51.744;7.190;2023-06-10T03:05:40;6.50;;;4.73;;
27145;SDS011;17980;51.744;7.190;2023-06-10T03:08:11;5.50;;;4.67;;
27145;SDS011;17980;51.744;7.190;2023-06-10T03:10:58;10.60;;;5.40;;
27145;SDS011;17980;51.744;7.190;2023-06-10T03:13:26;7.60;;;4.47;;
27145;SDS011;17980;51.744;7.190;2023-06-10T03:16:03;9.37;;;5.37;;
27145;SDS011;17980;51.744;7.190;2023-06-10T03:18:30;7.73;;;4.60;;
27145;SDS011;17980;51.744;7.190;2023-06-10T03:20:58;7.10;;;4.43;;
27145;SDS011;17980;51.744;7.190;2023-06-10T03:23:46;9.70;;;5.47;;
27145;SDS011;17980;51.744;7.190;2023-06-10T03:26:13;6.47;;;5.07;;
27145;SDS011;17980;51.744;7.190;2023-06-10T03:28:41;6.27;;;4.90;;
27145;SDS011;17980;51.744;7.190;2023-06-10T03:31:09;11.03;;;5.20;;
27145;SDS011;17980;51.744;7.190;2023-06-10T03:33:46;5.83;;;4.83;;
27145;SDS011;17980;51.744;7.190;2023-06-10T03:36:13;5.30;;;4.77;;
27145;SDS011;17980;51.744;7.190;2023-06-10T03:38:41;9.23;;;4.60;;
27145;SDS011;17980;51.744;7.190;2023-06-10T03:41:08;7.70;;;4.20;;
27145;SDS011;17980;51.744;7.190;2023-06-10T03:43:45;7.93;;;5.13;;
27145;SDS011;17980;51.744;7.190;2023-06-10T03:46:12;6.83;;;4.90;;
27145;SDS011;17980;51.744;7.190;2023-06-10T03:48:40;6.63;;;4.80;;
27145;SDS011;17980;51.744;7.190;2023-06-10T03:51:08;4.83;;;4.10;;
27145;SDS011;17980;51.744;7.190;2023-06-10T03:53:45;5.73;;;4.70;;
27145;SDS011;17980;51.744;7.190;2023-06-10T03:56:12;5.87;;;4.43;;
27145;SDS011;17980;51.744;7.190;2023-06-10T03:58:39;6.27;;;4.47;;
27145;SDS011;17980;51.744;7.190;2023-06-10T04:01:16;9.37;;;4.63;;
27145;SDS011;17980;51.744;7.190;2023-06-10T04:03:46;7.90;;;5.20;;
27145;SDS011;17980;51.744;7.190;2023-06-10T04:06:22;6.07;;;4.97;;
27145;SDS011;17980;51.744;7.190;2023-06-10T04:08:51;6.90;;;4.57;;
27145;SDS011;17980;51.744;7.190;2023-06-10T04:11:19;7.13;;;4.37;;
27145;SDS011;17980;51.744;7.190;2023-06-10T04:13:56;5.67;;;4.17;;
27145;SDS011;17980;51.744;7.190;2023-06-10T04:16:23;4.80;;;4.13;;
27145;SDS011;17980;51.744;7.190;2023-06-10T04:18:51;8.73;;;4.83;;
27145;SDS011;17980;51.744;7.190;2023-06-10T04:21:18;6.93;;;3.90;;
27145;SDS011;17980;51.744;7.190;2023-06-10T04:23:55;10.70;;;4.63;;
27145;SDS011;17980;51.744;7.190;2023-06-10T04:26:22;6.63;;;4.73;;
27145;SDS011;17980;51.744;7.190;2023-06-10T04:28:51;7.30;;;4.27;;
27145;SDS011;17980;51.744;7.190;2023-06-10T04:31:28;7.47;;;5.00;;
27145;SDS011;17980;51.744;7.190;2023-06-10T04:33:55;6.03;;;4.43;;
27145;SDS011;17980;51.744;7.190;2023-06-10T04:36:32;5.30;;;4.33;;
27145;SDS011;17980;51.744;7.190;2023-06-10T04:38:59;8.70;;;4.80;;
27145;SDS011;17980;51.744;7.190;2023-06-10T04:41:27;5.13;;;4.00;;
27145;SDS011;17980;51.744;7.190;2023-06-10T04:44:10;6.17;;;4.13;;
27145;SDS011;17980;51.744;7.190;2023-06-10T04:46:38;5.00;;;4.10;;
27145;SDS011;17980;51.744;7.190;2023-06-10T04:49:05;5.93;;;4.30;;
27145;SDS011;17980;51.744;7.190;2023-06-10T04:51:42;4.00;;;3.40;;
27145;SDS011;17980;51.744;7.190;2023-06-10T04:54:09;7.13;;;4.03;;
27145;SDS011;17980;51.744;7.190;2023-06-10T04:56:37;6.87;;;4.50;;
27145;SDS011;17980;51.744;7.190;2023-06-10T04:59:06;7.37;;;3.40;;
27145;SDS011;17980;51.744;7.190;2023-06-10T05:01:43;7.07;;;4.30;;
27145;SDS011;17980;51.744;7.190;2023-06-10T05:04:10;4.17;;;3.60;;
27145;SDS011;17980;51.744;7.190;2023-06-10T05:06:47;4.23;;;3.83;;
27145;SDS011;17980;51.744;7.190;2023-06-10T05:09:15;8.57;;;4.87;;
27145;SDS011;17980;51.744;7.190;2023-06-10T05:11:52;5.90;;;3.73;;
27145;SDS011;17980;51.744;7.190;2023-06-10T05:14:20;6.30;;;4.10;;
27145;SDS011;17980;51.744;7.190;2023-06-10T05:16:48;6.10;;;4.03;;
27145;SDS011;17980;51.744;7.190;2023-06-10T05:19:15;5.10;;;3.90;;
27145;SDS011;17980;51.744;7.190;2023-06-10T05:21:52;6.20;;;3.63;;
27145;SDS011;17980;51.744;7.190;2023-06-10T05:24:19;5.30;;;3.40;;
27145;SDS011;17980;51.744;7.190;2023-06-10T05:26:47;4.33;;;3.60;;
27145;SDS011;17980;51.744;7.190;2023-06-10T05:29:14;5.67;;;4.00;;
27145;SDS011;17980;51.744;7.190;2023-06-10T05:31:51;6.07;;;3.90;;
27145;SDS011;17980;51.744;7.190;2023-06-10T05:34:19;4.20;;;3.30;;
27145;SDS011;17980;51.744;7.190;2023-06-10T05:36:46;7.93;;;3.97;;
27145;SDS011;17980;51.744;7.190;2023-06-10T05:39:14;3.80;;;3.50;;
27145;SDS011;17980;51.744;7.190;2023-06-10T05:41:52;3.70;;;3.20;;
27145;SDS011;17980;51.744;7.190;2023-06-10T05:44:19;4.80;;;3.40;;
27145;SDS011;17980;51.744;7.190;2023-06-10T05:46:49;8.77;;;3.93;;
27145;SDS011;17980;51.744;7.190;2023-06-10T05:49:16;4.83;;;3.77;;
27145;SDS011;17980;51.744;7.190;2023-06-10T05:51:53;5.60;;;3.10;;
27145;SDS011;17980;51.744;7.190;2023-06-10T05:54:21;6.10;;;3.43;;
27145;SDS011;17980;51.744;7.190;2023-06-10T05:56:49;7.90;;;3.23;;
27145;SDS011;17980;51.744;7.190;2023-06-10T05:59:26;6.63;;;3.00;;
27145;SDS011;17980;51.744;7.190;2023-06-10T06:01:53;4.47;;;2.93;;
27145;SDS011;17980;51.744;7.190;2023-06-10T06:04:30;6.00;;;3.07;;
27145;SDS011;17980;51.744;7.190;2023-06-10T06:06:58;5.03;;;2.73;;
27145;SDS011;17980;51.744;7.190;2023-06-10T06:09:25;4.30;;;2.90;;
27145;SDS011;17980;51.744;7.190;2023-06-10T06:12:08;4.43;;;3.27;;
27145;SDS011;17980;51.744;7.190;2023-06-10T06:14:37;4.00;;;2.60;;
27145;SDS011;17980;51.744;7.190;2023-06-10T06:17:05;4.17;;;2.33;;
27145;SDS011;17980;51.744;7.190;2023-06-10T06:19:42;5.60;;;2.90;;
27145;SDS011;17980;51.744;7.190;2023-06-10T06:22:09;5.10;;;3.20;;
27145;SDS011;17980;51.744;7.190;2023-06-10T06:24:46;4.10;;;2.83;;
27145;SDS011;17980;51.744;7.190;2023-06-10T06:27:15;8.47;;;3.07;;
27145;SDS011;17980;51.744;7.190;2023-06-10T06:29:42;3.53;;;2.90;;
27145;SDS011;17980;51.744;7.190;2023-06-10T06:32:19;4.67;;;2.90;;
27145;SDS011;17980;51.744;7.190;2023-06-10T06:34:48;7.23;;;2.73;;
27145;SDS011;17980;51.744;7.190;2023-06-10T06:37:25;7.67;;;2.80;;
27145;SDS011;17980;51.744;7.190;2023-06-10T06:39:53;13.37;;;2.50;;
27145;SDS011;17980;51.744;7.190;2023-06-10T06:42:30;4.07;;;2.77;;
27145;SDS011;17980;51.744;7.190;2023-06-10T06:44:58;6.37;;;2.57;;
27145;SDS011;17980;51.744;7.190;2023-06-10T06:47:25;5.37;;;2.30;;
27145;SDS011;17980;51.744;7.190;2023-06-10T06:49:53;2.70;;;2.27;;
27145;SDS011;17980;51.744;7.190;2023-06-10T06:52:29;2.60;;;2.27;;
27145;SDS011;17980;51.744;7.190;2023-06-10T06:54:57;4.77;;;2.20;;
27145;SDS011;17980;51.744;7.190;2023-06-10T06:57:24;5.37;;;2.50;;
27145;SDS011;17980;51.744;7.190;2023-06-10T07:00:01;4.47;;;2.37;;
27145;SDS011;17980;51.744;7.190;2023-06-10T07:02:30;7.17;;;2.47;;
27145;SDS011;17980;51.744;7.190;2023-06-10T07:05:07;2.33;;;2.10;;
27145;SDS011;17980;51.744;7.190;2023-06-10T07:07:35;3.53;;;1.90;;
27145;SDS011;17980;51.744;7.190;2023-06-10T07:10:02;3.23;;;2.20;;
27145;SDS011;17980;51.744;7.190;2023-06-10T07:12:46;4.37;;;2.63;;
27145;SDS011;17980;51.744;7.190;2023-06-10T07:15:13;4.93;;;2.33;;
27145;SDS011;17980;51.744;7.190;2023-06-10T07:17:40;3.53;;;2.03;;
27145;SDS011;17980;51.744;7.190;2023-06-10T07:20:09;5.43;;;2.63;;
27145;SDS011;17980;51.744;7.190;2023-06-10T07:22:46;4.10;;;2.07;;
27145;SDS011;17980;51.744;7.190;2023-06-10T07:25:14;6.73;;;2.47;;
27145;SDS011;17980;51.744;7.190;2023-06-10T07:27:42;2.17;;;1.87;;
27145;SDS011;17980;51.744;7.190;2023-06-10T07:30:18;3.93;;;2.20;;
27145;SDS011;17980;51.744;7.190;2023-06-10T07:32:46;4.23;;;2.43;;
27145;SDS011;17980;51.744;7.190;2023-06-10T07:35:23;3.67;;;2.30;;
27145;SDS011;17980;51.744;7.190;2023-06-10T07:37:50;3.13;;;2.13;;
27145;SDS011;17980;51.744;7.190;2023-06-10T07:40:18;2.10;;;1.80;;
27145;SDS011;17980;51.744;7.190;2023-06-10T07:42:55;3.60;;;2.17;;
27145;SDS011;17980;51.744;7.190;2023-06-10T07:45:22;3.10;;;1.87;;
27145;SDS011;17980;51.744;7.190;2023-06-10T07:47:49;5.73;;;2.17;;
27145;SDS011;17980;51.744;7.190;2023-06-10T07:50:17;3.53;;;2.40;;
27145;SDS011;17980;51.744;7.190;2023-06-10T07:52:54;1.93;;;1.73;;
27145;SDS011;17980;51.744;7.190;2023-06-10T07:55:21;5.07;;;2.27;;
27145;SDS011;17980;51.744;7.190;2023-06-10T07:57:48;4.50;;;2.30;;
27145;SDS011;17980;51.744;7.190;2023-06-10T08:00:17;3.03;;;2.20;;
27145;SDS011;17980;51.744;7.190;2023-06-10T08:02:54;4.70;;;2.10;;
27145;SDS011;17980;51.744;7.190;2023-06-10T08:05:22;4.53;;;2.43;;
27145;SDS011;17980;51.744;7.190;2023-06-10T08:10:34;5.30;;;2.07;;
27145;SDS011;17980;51.744;7.190;2023-06-10T08:13:02;2.92;;;1.82;;
27145;SDS011;17980;51.744;7.190;2023-06-10T08:15:39;3.80;;;1.90;;
27145;SDS011;17980;51.744;7.190;2023-06-10T08:18:06;4.78;;;2.30;;
27145;SDS011;17980;51.744;7.190;2023-06-10T08:20:43;5.55;;;1.95;;
27145;SDS011;17980;51.744;7.190;2023-06-10T08:23:10;2.67;;;2.13;;
27145;SDS011;17980;51.744;7.190;2023-06-10T08:25:47;2.72;;;2.05;;
27145;SDS011;17980;51.744;7.190;2023-06-10T08:28:15;3.50;;;2.55;;
27145;SDS011;17980;51.744;7.190;2023-06-10T08:30:42;4.35;;;2.27;;
27145;SDS011;17980;51.744;7.190;2023-06-10T08:33:19;2.52;;;2.20;;
27145;SDS011;17980;51.744;7.190;2023-06-10T08:35:46;3.95;;;2.42;;
27145;SDS011;17980;51.744;7.190;2023-06-10T08:38:23;2.45;;;2.25;;
27145;SDS011;17980;51.744;7.190;2023-06-10T08:40:50;2.37;;;1.85;;
27145;SDS011;17980;51.744;7.190;2023-06-10T08:43:30;2.25;;;2.00;;
27145;SDS011;17980;51.744;7.190;2023-06-10T08:46:01;2.72;;;2.05;;
27145;SDS011;17980;51.744;7.190;2023-06-10T08:48:29;2.98;;;1.95;;
27145;SDS011;17980;51.744;7.190;2023-06-10T08:51:06;2.00;;;1.80;;
27145;SDS011;17980;51.744;7.190;2023-06-10T08:53:36;3.37;;;2.10;;
27145;SDS011;17980;51.744;7.190;2023-06-10T08:56:14;4.85;;;2.55;;
27145;SDS011;17980;51.744;7.190;2023-06-10T08:58:43;2.83;;;2.00;;
27145;SDS011;17980;51.744;7.190;2023-06-10T09:01:12;6.30;;;2.45;;
27145;SDS011;17980;51.744;7.190;2023-06-10T09:03:49;3.65;;;2.20;;
27145;SDS011;17980;51.744;7.190;2023-06-10T09:06:16;3.20;;;2.08;;
27145;SDS011;17980;51.744;7.190;2023-06-10T09:08:42;3.15;;;2.08;;
27145;SDS011;17980;51.744;7.190;2023-06-10T09:11:09;4.20;;;2.42;;
27145;SDS011;17980;51.744;7.190;2023-06-10T09:13:36;6.17;;;2.50;;
27145;SDS011;17980;51.744;7.190;2023-06-10T09:16:02;5.15;;;2.27;;
27145;SDS011;17980;51.744;7.190;2023-06-10T09:21:05;4.92;;;2.27;;
27145;SDS011;17980;51.744;7.190;2023-06-10T09:23:31;3.33;;;2.00;;
27145;SDS011;17980;51.744;7.190;2023-06-10T09:25:58;4.40;;;2.10;;
27145;SDS011;17980;51.744;7.190;2023-06-10T09:28:25;4.80;;;2.33;;
27145;SDS011;17980;51.744;7.190;2023-06-10T09:31:01;6.75;;;2.37;;
27145;SDS011;17980;51.744;7.190;2023-06-10T09:33:28;2.95;;;1.60;;
27145;SDS011;17980;51.744;7.190;2023-06-10T09:35:55;4.03;;;2.15;;
27145;SDS011;17980;51.744;7.190;2023-06-10T09:38:22;2.20;;;1.98;;
27145;SDS011;17980;51.744;7.190;2023-06-10T09:40:49;2.55;;;1.82;;
27145;SDS011;17980;51.744;7.190;2023-06-10T09:43:17;5.53;;;2.12;;
27145;SDS011;17980;51.744;7.190;2023-06-10T09:45:43;5.10;;;2.20;;
27145;SDS011;17980;51.744;7.190;2023-06-10T09:48:10;2.27;;;1.80;;
27145;SDS011;17980;51.744;7.190;2023-06-10T09:50:41;3.63;;;2.00;;
27145;SDS011;17980;51.744;7.190;2023-06-10T09:53:09;2.57;;;1.90;;
27145;SDS011;17980;51.744;7.190;2023-06-10T09:55:37;4.53;;;2.02;;
27145;SDS011;17980;51.744;7.190;2023-06-10T09:58:04;5.93;;;2.23;;
27145;SDS011;17980;51.744;7.190;2023-06-10T10:00:32;2.30;;;2.10;;
27145;SDS011;17980;51.744;7.190;2023-06-10T10:02:59;4.67;;;1.80;;
27145;SDS011;17980;51.744;7.190;2023-06-10T10:05:26;2.58;;;2.15;;
27145;SDS011;17980;51.744;7.190;2023-06-10T10:07:53;2.37;;;2.12;;
27145;SDS011;17980;51.744;7.190;2023-06-10T10:10:20;6.28;;;2.52;;
27145;SDS011;17980;51.744;7.190;2023-06-10T10:12:47;3.77;;;2.62;;
27145;SDS011;17980;51.744;7.190;2023-06-10T10:15:16;8.53;;;2.90;;
27145;SDS011;17980;51.744;7.190;2023-06-10T10:17:43;9.48;;;2.33;;
27145;SDS011;17980;51.744;7.190;2023-06-10T10:20:12;2.25;;;2.05;;
27145;SDS011;17980;51.744;7.190;2023-06-10T10:22:39;1.77;;;1.62;;
27145;SDS011;17980;51.744;7.190;2023-06-10T10:25:08;2.95;;;2.17;;
27145;SDS011;17980;51.744;7.190;2023-06-10T10:27:36;4.65;;;2.10;;
27145;SDS011;17980;51.744;7.190;2023-06-10T10:30:04;2.65;;;2.25;;
27145;SDS011;17980;51.744;7.190;2023-06-10T10:32:35;4.40;;;2.07;;
27145;SDS011;17980;51.744;7.190;2023-06-10T10:35:03;2.83;;;2.62;;
27145;SDS011;17980;51.744;7.190;2023-06-10T10:37:31;4.80;;;2.37;;
27145;SDS011;17980;51.744;7.190;2023-06-10T10:39:58;7.37;;;2.33;;
27145;SDS011;17980;51.744;7.190;2023-06-10T10:42:25;8.07;;;2.67;;
27145;SDS011;17980;51.744;7.190;2023-06-10T10:44:52;10.03;;;2.77;;
27145;SDS011;17980;51.744;7.190;2023-06-10T10:47:19;9.07;;;2.17;;
27145;SDS011;17980;51.744;7.190;2023-06-10T10:49:48;2.53;;;2.30;;
27145;SDS011;17980;51.744;7.190;2023-06-10T10:52:15;3.47;;;2.13;;
27145;SDS011;17980;51.744;7.190;2023-06-10T10:54:43;2.97;;;2.50;;
27145;SDS011;17980;51.744;7.190;2023-06-10T10:57:11;2.60;;;2.40;;
27145;SDS011;17980;51.744;7.190;2023-06-10T10:59:46;5.80;;;2.77;;
27145;SDS011;17980;51.744;7.190;2023-06-10T11:02:31;3.87;;;2.27;;
27145;SDS011;17980;51.744;7.190;2023-06-10T11:04:55;4.10;;;2.77;;
27145;SDS011;17980;51.744;7.190;2023-06-10T11:07:32;3.27;;;2.93;;
27145;SDS011;17980;51.744;7.190;2023-06-10T11:10:02;5.47;;;2.67;;
27145;SDS011;17980;51.744;7.190;2023-06-10T11:15:28;10.07;;;2.60;;
27145;SDS011;17980;51.744;7.190;2023-06-10T11:18:11;4.67;;;2.80;;
27145;SDS011;17980;51.744;7.190;2023-06-10T11:26:17;4.27;;;2.63;;
27145;SDS011;17980;51.744;7.190;2023-06-10T11:29:01;6.70;;;3.73;;
27145;SDS011;17980;51.744;7.190;2023-06-10T11:31:28;5.17;;;2.57;;
27145;SDS011;17980;51.744;7.190;2023-06-10T11:33:56;7.83;;;3.00;;
27145;SDS011;17980;51.744;7.190;2023-06-10T11:36:23;5.73;;;3.07;;
27145;SDS011;17980;51.744;7.190;2023-06-10T11:38:50;6.00;;;3.00;;
27145;SDS011;17980;51.744;7.190;2023-06-10T11:41:18;3.90;;;3.07;;
27145;SDS011;17980;51.744;7.190;2023-06-10T11:43:45;3.77;;;2.37;;
27145;SDS011;17980;51.744;7.190;2023-06-10T11:46:11;3.27;;;2.93;;
27145;SDS011;17980;51.744;7.190;2023-06-10T11:48:38;4.00;;;2.77;;
27145;SDS011;17980;51.744;7.190;2023-06-10T11:51:06;5.27;;;3.00;;
27145;SDS011;17980;51.744;7.190;2023-06-10T11:53:33;3.50;;;2.60;;
27145;SDS011;17980;51.744;7.190;2023-06-10T11:55:59;3.07;;;2.50;;
27145;SDS011;17980;51.744;7.190;2023-06-10T11:58:26;5.37;;;2.87;;
27145;SDS011;17980;51.744;7.190;2023-06-10T12:00:53;5.10;;;2.77;;
27145;SDS011;17980;51.744;7.190;2023-06-10T12:03:20;5.63;;;2.60;;
27145;SDS011;17980;51.744;7.190;2023-06-10T12:05:57;4.40;;;2.60;;
27145;SDS011;17980;51.744;7.190;2023-06-10T12:08:24;5.03;;;2.60;;
27145;SDS011;17980;51.744;7.190;2023-06-10T12:10:51;5.83;;;2.70;;
27145;SDS011;17980;51.744;7.190;2023-06-10T12:13:17;4.20;;;2.50;;
27145;SDS011;17980;51.744;7.190;2023-06-10T12:15:44;3.73;;;2.70;;
27145;SDS011;17980;51.744;7.190;2023-06-10T12:18:16;4.43;;;2.73;;
27145;SDS011;17980;51.744;7.190;2023-06-10T12:20:42;5.53;;;2.83;;
27145;SDS011;17980;51.744;7.190;2023-06-10T12:23:09;3.23;;;2.90;;
27145;SDS011;17980;51.744;7.190;2023-06-10T12:25:36;3.20;;;2.47;;
27145;SDS011;17980;51.744;7.190;2023-06-10T12:28:04;5.73;;;3.00;;
27145;SDS011;17980;51.744;7.190;2023-06-10T12:30:31;4.07;;;2.87;;
27145;SDS011;17980;51.744;7.190;2023-06-10T12:32:57;4.53;;;2.87;;
27145;SDS011;17980;51.744;7.190;2023-06-10T12:35:24;10.37;;;4.17;;
27145;SDS011;17980;51.744;7.190;2023-06-10T12:40:34;4.70;;;3.00;;
27145;SDS011;17980;51.744;7.190;2023-06-10T12:43:03;3.27;;;2.80;;
27145;SDS011;17980;51.744;7.190;2023-06-10T12:45:31;4.50;;;2.53;;
27145;SDS011;17980;51.744;7.190;2023-06-10T12:48:09;4.67;;;2.50;;
27145;SDS011;17980;51.744;7.190;2023-06-10T12:50:38;4.67;;;3.13;;
27145;SDS011;17980;51.744;7.190;2023-06-10T12:53:18;7.97;;;2.60;;
27145;SDS011;17980;51.744;7.190;2023-06-10T12:55:46;2.63;;;2.43;;
27145;SDS011;17980;51.744;7.190;2023-06-10T12:58:15;12.80;;;3.37;;
27145;SDS011;17980;51.744;7.190;2023-06-10T13:00:59;3.90;;;2.47;;
27145;SDS011;17980;51.744;7.190;2023-06-10T13:03:30;5.40;;;3.07;;
27145;SDS011;17980;51.744;7.190;2023-06-10T13:06:08;6.50;;;2.90;;
27145;SDS011;17980;51.744;7.190;2023-06-10T13:08:35;2.93;;;2.70;;
27145;SDS011;17980;51.744;7.190;2023-06-10T13:11:12;3.53;;;2.53;;
27145;SDS011;17980;51.744;7.190;2023-06-10T13:13:39;4.80;;;3.00;;
27145;SDS011;17980;51.744;7.190;2023-06-10T13:16:17;4.57;;;2.90;;
27145;SDS011;17980;51.744;7.190;2023-06-10T13:18:44;5.63;;;3.17;;
27145;SDS011;17980;51.744;7.190;2023-06-10T13:21:21;3.47;;;2.80;;
27145;SDS011;17980;51.744;7.190;2023-06-10T13:23:49;5.10;;;3.00;;
27145;SDS011;17980;51.744;7.190;2023-06-10T13:26:17;3.47;;;2.57;;
27145;SDS011;17980;51.744;7.190;2023-06-10T13:28:54;3.50;;;2.90;;
27145;SDS011;17980;51.744;7.190;2023-06-10T13:31:21;4.67;;;2.80;;
27145;SDS011;17980;51.744;7.190;2023-06-10T13:33:48;3.50;;;3.17;;
27145;SDS011;17980;51.744;7.190;2023-06-10T13:36:25;4.40;;;2.87;;
27145;SDS011;17980;51.744;7.190;2023-06-10T13:38:53;3.20;;;2.90;;
27145;SDS011;17980;51.744;7.190;2023-06-10T13:41:31;8.07;;;3.10;;
27145;SDS011;17980;51.744;7.190;2023-06-10T13:43:58;3.60;;;3.20;;
27145;SDS011;17980;51.744;7.190;2023-06-10T13:46:26;4.23;;;3.53;;
27145;SDS011;17980;51.744;7.190;2023-06-10T13:48:53;3.97;;;2.93;;
27145;SDS011;17980;51.744;7.190;2023-06-10T13:51:30;4.93;;;2.87;;
27145;SDS011;17980;51.744;7.190;2023-06-10T13:53:57;5.73;;;2.47;;
27145;SDS011;17980;51.744;7.190;2023-06-10T13:56:25;7.60;;;2.90;;
27145;SDS011;17980;51.744;7.190;2023-06-10T13:59:01;4.10;;;3.60;;
27145;SDS011;17980;51.744;7.190;2023-06-10T14:01:29;7.30;;;3.20;;
27145;SDS011;17980;51.744;7.190;2023-06-10T14:03:56;6.97;;;2.90;;
27145;SDS011;17980;51.744;7.190;2023-06-10T14:06:33;2.77;;;2.47;;
27145;SDS011;17980;51.744;7.190;2023-06-10T14:09:00;4.03;;;2.10;;
27145;SDS011;17980;51.744;7.190;2023-06-10T14:11:37;3.73;;;3.17;;
27145;SDS011;17980;51.744;7.190;2023-06-10T14:14:05;6.53;;;2.40;;
27145;SDS011;17980;51.744;7.190;2023-06-10T14:16:32;2.93;;;2.73;;
27145;SDS011;17980;51.744;7.190;2023-06-10T14:19:09;5.30;;;2.93;;
27145;SDS011;17980;51.744;7.190;2023-06-10T14:21:36;2.77;;;2.50;;
27145;SDS011;17980;51.744;7.190;2023-06-10T14:24:04;5.27;;;3.20;;
27145;SDS011;17980;51.744;7.190;2023-06-10T14:26:32;5.60;;;2.53;;
27145;SDS011;17980;51.744;7.190;2023-06-10T14:29:08;2.80;;;2.60;;
27145;SDS011;17980;51.744;7.190;2023-06-10T14:31:36;5.20;;;3.00;;
27145;SDS011;17980;51.744;7.190;2023-06-10T14:34:19;5.67;;;2.90;;
27145;SDS011;17980;51.744;7.190;2023-06-10T14:36:48;7.17;;;3.07;;
27145;SDS011;17980;51.744;7.190;2023-06-10T14:39:25;2.80;;;2.60;;
27145;SDS011;17980;51.744;7.190;2023-06-10T14:41:53;4.57;;;3.17;;
27145;SDS011;17980;51.744;7.190;2023-06-10T14:44:30;8.40;;;3.60;;
27145;SDS011;17980;51.744;7.190;2023-06-10T14:46:57;3.60;;;2.70;;
27145;SDS011;17980;51.744;7.190;2023-06-10T14:49:34;3.27;;;2.80;;
27145;SDS011;17980;51.744;7.190;2023-06-10T14:52:02;4.73;;;2.93;;
27145;SDS011;17980;51.744;7.190;2023-06-10T14:54:30;3.40;;;2.67;;
27145;SDS011;17980;51.744;7.190;2023-06-10T14:57:06;4.30;;;2.87;;
27145;SDS011;17980;51.744;7.190;2023-06-10T14:59:34;6.00;;;2.97;;
27145;SDS011;17980;51.744;7.190;2023-06-10T15:02:11;3.60;;;3.30;;
27145;SDS011;17980;51.744;7.190;2023-06-10T15:04:38;3.17;;;2.83;;
27145;SDS011;17980;51.744;7.190;2023-06-10T15:07:06;5.23;;;2.73;;
27145;SDS011;17980;51.744;7.190;2023-06-10T15:09:43;3.47;;;2.80;;
27145;SDS011;17980;51.744;7.190;2023-06-10T15:12:10;3.67;;;2.70;;
27145;SDS011;17980;51.744;7.190;2023-06-10T15:14:37;6.27;;;2.80;;
27145;SDS011;17980;51.744;7.190;2023-06-10T15:17:14;4.10;;;3.00;;
27145;SDS011;17980;51.744;7.190;2023-06-10T15:19:42;5.17;;;3.00;;
27145;SDS011;17980;51.744;7.190;2023-06-10T15:22:19;4.67;;;3.10;;
27145;SDS011;17980;51.744;7.190;2023-06-10T15:24:46;4.73;;;2.97;;
27145;SDS011;17980;51.744;7.190;2023-06-10T15:27:13;5.33;;;2.83;;
27145;SDS011;17980;51.744;7.190;2023-06-10T15:29:50;6.13;;;2.83;;
27145;SDS011;17980;51.744;7.190;2023-06-10T15:32:18;4.67;;;3.07;;
27145;SDS011;17980;51.744;7.190;2023-06-10T15:34:45;4.07;;;2.53;;
27145;SDS011;17980;51.744;7.190;2023-06-10T15:37:13;4.53;;;3.07;;